createdAt,value
2023-04-30T00:01:37.244Z,8.45
2023-04-30T00:19:21.203Z,8.18
2023-04-30T00:26:03.224Z,7.70
2023-04-30T00:32:47.331Z,8.05
2023-04-30T00:40:05.692Z,8.48
2023-04-30T00:43:03.031Z,8.60
2023-04-30T00:48:48.456Z,8.88
2023-04-30T00:51:43.004Z,7.97
2023-04-30T00:54:10.144Z,7.57
2023-04-30T00:56:37.064Z,7.28
2023-04-30T00:59:04.127Z,7.47
2023-04-30T01:01:31.916Z,7.55
2023-04-30T01:03:58.889Z,7.70
2023-04-30T01:06:28.668Z,7.13
2023-04-30T01:08:57.329Z,7.57
2023-04-30T01:12:03.603Z,7.60
2023-04-30T01:14:30.426Z,6.18
2023-04-30T01:17:06.848Z,6.65
2023-04-30T01:19:35.087Z,7.13
2023-04-30T01:22:04.453Z,6.65
2023-04-30T01:24:48.052Z,6.20
2023-04-30T01:31:16.933Z,6.10
2023-04-30T01:34:09.217Z,6.28
2023-04-30T01:46:08.561Z,6.70
2023-04-30T01:50:11.188Z,7.18
2023-04-30T01:53:17.813Z,6.68
2023-04-30T02:04:30.572Z,6.15
2023-04-30T02:08:29.470Z,6.80
2023-04-30T02:19:15.995Z,6.05
2023-04-30T02:21:59.831Z,6.35
2023-04-30T02:24:28.789Z,7.03
2023-04-30T02:26:55.592Z,7.05
2023-04-30T02:29:22.478Z,7.15
2023-04-30T02:31:51.639Z,6.22
2023-04-30T02:34:18.605Z,6.30
2023-04-30T02:36:45.381Z,6.63
2023-04-30T02:39:12.265Z,6.22
2023-04-30T02:41:41.375Z,6.50
2023-04-30T02:44:08.512Z,6.25
2023-04-30T02:46:35.639Z,6.80
2023-04-30T02:49:02.505Z,6.93
2023-04-30T02:51:29.392Z,6.53
2023-04-30T02:53:56.300Z,6.85
2023-04-30T02:56:25.255Z,6.35
2023-04-30T02:58:52.188Z,7.00
2023-04-30T03:01:19.063Z,6.93
2023-04-30T03:03:45.929Z,6.53
2023-04-30T03:06:12.777Z,7.22
2023-04-30T03:08:39.700Z,7.32
2023-04-30T03:11:06.535Z,6.97
2023-04-30T03:13:33.504Z,7.45
2023-04-30T03:16:04.654Z,7.05
2023-04-30T03:18:31.523Z,7.90
2023-04-30T03:20:58.497Z,7.32
2023-04-30T03:23:28.001Z,7.10
2023-04-30T03:25:54.914Z,8.52
2023-04-30T03:28:22.240Z,7.47
2023-04-30T03:30:49.175Z,7.78
2023-04-30T03:33:16.047Z,7.57
2023-04-30T03:35:42.953Z,7.78
2023-04-30T03:38:11.287Z,8.00
2023-04-30T03:40:38.390Z,8.30
2023-04-30T03:43:06.151Z,7.82
2023-04-30T03:45:33.082Z,7.50
2023-04-30T03:48:00.329Z,7.32
2023-04-30T03:50:29.952Z,7.55
2023-04-30T03:52:56.874Z,7.80
2023-04-30T03:55:26.046Z,9.25
2023-04-30T03:57:52.948Z,8.25
2023-04-30T04:00:20.030Z,8.65
2023-04-30T04:02:46.986Z,8.15
2023-04-30T04:05:13.994Z,8.40
2023-04-30T04:07:41.303Z,8.48
2023-04-30T04:10:08.920Z,8.50
2023-04-30T04:12:35.777Z,8.43
2023-04-30T04:15:02.705Z,8.02
2023-04-30T04:17:29.626Z,9.23
2023-04-30T04:19:57.234Z,8.77
2023-04-30T04:22:24.142Z,8.68
2023-04-30T04:24:51.563Z,8.30
2023-04-30T04:27:19.393Z,8.10
2023-04-30T04:29:46.493Z,8.68
2023-04-30T04:32:14.669Z,8.38
2023-04-30T04:34:43.023Z,7.20
2023-04-30T04:37:12.112Z,7.13
2023-04-30T04:39:38.961Z,7.63
2023-04-30T04:42:05.822Z,6.80
2023-04-30T04:44:33.005Z,7.18
2023-04-30T04:46:59.890Z,7.60
2023-04-30T04:49:28.967Z,7.47
2023-04-30T04:51:55.972Z,6.63
2023-04-30T04:54:22.793Z,6.82
2023-04-30T04:56:50.374Z,7.18
2023-04-30T04:59:18.550Z,6.40
2023-04-30T05:01:45.456Z,6.13
2023-04-30T05:04:13.883Z,5.93
2023-04-30T05:06:42.721Z,6.25
2023-04-30T05:09:11.890Z,5.90
2023-04-30T05:11:38.991Z,5.70
2023-04-30T05:14:05.978Z,5.45
2023-04-30T05:16:32.873Z,5.82
2023-04-30T05:19:02.228Z,5.13
2023-04-30T05:21:29.891Z,4.00
2023-04-30T05:23:56.678Z,4.40
2023-04-30T05:26:24.557Z,3.92
2023-04-30T05:28:52.670Z,3.40
2023-04-30T05:31:20.992Z,3.47
2023-04-30T05:33:48.399Z,3.20
2023-04-30T05:36:16.668Z,3.08
2023-04-30T05:38:43.475Z,3.20
2023-04-30T05:41:12.986Z,3.03
2023-04-30T05:43:39.837Z,2.80
2023-04-30T05:46:06.821Z,2.67
2023-04-30T05:48:33.869Z,3.33
2023-04-30T05:51:00.946Z,2.78
2023-04-30T05:53:27.999Z,2.50
2023-04-30T05:55:54.787Z,3.13
2023-04-30T05:58:24.244Z,2.58
2023-04-30T06:00:54.614Z,2.22
2023-04-30T06:03:21.432Z,2.83
2023-04-30T06:05:48.369Z,2.45
2023-04-30T06:08:15.215Z,3.13
2023-04-30T06:10:44.695Z,2.58
2023-04-30T06:13:11.525Z,2.78
2023-04-30T06:15:38.701Z,2.55
2023-04-30T06:18:05.702Z,3.45
2023-04-30T06:20:32.652Z,2.10
2023-04-30T06:23:00.192Z,2.55
2023-04-30T06:25:27.000Z,2.80
2023-04-30T06:27:55.941Z,2.28
2023-04-30T06:30:25.126Z,2.67
2023-04-30T06:32:52.173Z,2.97
2023-04-30T06:35:19.038Z,3.03
2023-04-30T06:37:46.018Z,2.30
2023-04-30T06:40:12.963Z,2.83
2023-04-30T06:42:39.969Z,2.33
2023-04-30T06:45:07.259Z,2.50
2023-04-30T06:47:38.148Z,2.38
2023-04-30T06:50:05.610Z,2.63
2023-04-30T06:52:32.471Z,2.75
2023-04-30T06:54:59.279Z,2.40
2023-04-30T06:57:27.341Z,2.40
2023-04-30T06:59:54.636Z,2.20
2023-04-30T07:02:22.536Z,2.55
2023-04-30T07:04:49.602Z,2.42
2023-04-30T07:07:16.475Z,2.15
2023-04-30T07:09:43.308Z,2.53
2023-04-30T07:12:12.107Z,2.20
2023-04-30T07:14:39.350Z,2.13
2023-04-30T07:17:06.169Z,2.20
2023-04-30T07:19:33.037Z,1.63
2023-04-30T07:21:59.910Z,2.47
2023-04-30T07:24:26.728Z,2.17
2023-04-30T07:26:53.574Z,2.00
2023-04-30T07:29:20.496Z,2.13
2023-04-30T07:31:47.810Z,2.00
2023-04-30T07:34:14.643Z,1.83
2023-04-30T07:36:41.448Z,2.10
2023-04-30T07:39:08.450Z,1.80
2023-04-30T07:41:35.362Z,1.70
2023-04-30T07:44:02.367Z,2.30
2023-04-30T07:46:29.190Z,2.03
2023-04-30T07:48:56.091Z,1.67
2023-04-30T07:51:22.989Z,2.13
2023-04-30T07:53:49.785Z,1.58
2023-04-30T07:56:16.602Z,1.67
2023-04-30T07:58:43.823Z,1.88
2023-04-30T08:01:13.067Z,1.98
2023-04-30T08:03:40.136Z,1.88
2023-04-30T08:06:08.215Z,2.03
2023-04-30T08:08:35.184Z,2.45
2023-04-30T08:11:02.229Z,1.80
2023-04-30T08:13:29.136Z,2.05
2023-04-30T08:15:55.994Z,2.00
2023-04-30T08:18:25.343Z,1.70
2023-04-30T08:20:52.181Z,1.80
2023-04-30T08:23:19.005Z,1.60
2023-04-30T08:25:46.123Z,2.17
2023-04-30T08:28:13.022Z,1.80
2023-04-30T08:30:40.064Z,1.90
2023-04-30T08:33:09.287Z,2.13
2023-04-30T08:35:36.084Z,1.58
2023-04-30T08:38:02.849Z,1.70
2023-04-30T08:40:49.522Z,1.80
2023-04-30T08:43:18.618Z,1.63
2023-04-30T08:45:45.709Z,1.48
2023-04-30T08:48:16.649Z,1.73
2023-04-30T08:50:43.681Z,1.40
2023-04-30T08:53:11.171Z,1.30
2023-04-30T08:55:39.619Z,1.70
2023-04-30T08:58:08.009Z,1.58
2023-04-30T09:00:36.370Z,1.30
2023-04-30T09:03:03.533Z,1.45
2023-04-30T09:05:30.998Z,1.85
2023-04-30T09:08:03.752Z,1.25
2023-04-30T09:10:35.063Z,1.55
2023-04-30T09:13:09.489Z,1.40
2023-04-30T09:15:38.747Z,1.13
2023-04-30T09:18:16.621Z,1.45
2023-04-30T09:20:58.392Z,1.70
2023-04-30T09:25:54.767Z,1.50
2023-04-30T09:28:25.823Z,1.30
2023-04-30T09:30:53.328Z,1.48
2023-04-30T09:33:20.556Z,1.30
2023-04-30T09:35:47.437Z,1.50
2023-04-30T09:38:31.273Z,1.50
2023-04-30T09:41:02.160Z,1.55
2023-04-30T09:43:29.837Z,1.80
2023-04-30T09:46:00.980Z,1.35
2023-04-30T09:48:31.658Z,1.45
2023-04-30T09:50:58.740Z,1.47
2023-04-30T09:53:25.655Z,1.77
2023-04-30T09:55:52.743Z,1.73
2023-04-30T09:58:20.189Z,1.40
2023-04-30T10:00:49.536Z,1.50
2023-04-30T10:03:17.133Z,1.33
2023-04-30T10:05:47.596Z,1.48
2023-04-30T10:08:42.732Z,1.50
2023-04-30T10:11:16.696Z,2.00
2023-04-30T10:13:54.012Z,1.30
2023-04-30T10:16:40.432Z,1.42
2023-04-30T10:19:12.387Z,1.52
2023-04-30T10:21:41.418Z,1.70
2023-04-30T10:24:10.136Z,1.65
2023-04-30T10:26:37.575Z,1.73
2023-04-30T10:29:04.424Z,1.48
2023-04-30T10:31:31.480Z,1.60
2023-04-30T10:34:35.325Z,1.60
2023-04-30T10:37:10.343Z,1.55
2023-04-30T10:39:37.866Z,1.30
2023-04-30T10:42:06.711Z,1.70
2023-04-30T10:44:35.323Z,1.55
2023-04-30T10:47:02.700Z,1.52
2023-04-30T10:49:29.951Z,1.58
2023-04-30T10:52:00.752Z,1.42
2023-04-30T10:54:32.044Z,1.67
2023-04-30T10:57:17.828Z,1.70
2023-04-30T11:00:07.214Z,1.45
2023-04-30T11:02:45.174Z,2.03
2023-04-30T11:05:14.524Z,1.48
2023-04-30T11:07:58.465Z,1.50
2023-04-30T11:10:28.525Z,2.08
2023-04-30T11:12:56.262Z,2.00
2023-04-30T11:15:27.411Z,1.63
2023-04-30T11:17:59.145Z,1.70
2023-04-30T11:23:19.631Z,1.60
2023-04-30T11:25:54.896Z,1.83
2023-04-30T11:28:24.763Z,1.77
2023-04-30T11:30:59.307Z,1.50
2023-04-30T11:33:28.022Z,1.67
2023-04-30T11:35:56.458Z,1.65
2023-04-30T11:38:27.589Z,1.80
2023-04-30T11:40:55.125Z,1.77
2023-04-30T11:43:27.334Z,1.70
2023-04-30T11:46:06.622Z,1.80
2023-04-30T11:48:42.272Z,1.95
2023-04-30T11:51:22.748Z,1.83
2023-04-30T11:53:51.738Z,1.45
2023-04-30T11:56:24.429Z,1.63
2023-04-30T11:58:56.075Z,1.52
2023-04-30T12:01:24.352Z,2.25
2023-04-30T12:03:53.403Z,1.90
2023-04-30T12:06:28.114Z,2.05
2023-04-30T12:09:01.277Z,2.00
2023-04-30T12:11:29.273Z,1.60
2023-04-30T12:13:57.198Z,1.77
2023-04-30T12:16:29.299Z,1.85
2023-04-30T12:18:58.255Z,1.88
2023-04-30T12:21:25.080Z,2.00
2023-04-30T12:23:51.983Z,1.85
2023-04-30T12:26:18.932Z,1.60
2023-04-30T12:28:48.659Z,1.70
2023-04-30T12:31:19.782Z,1.73
2023-04-30T12:33:55.368Z,1.83
2023-04-30T12:36:22.209Z,1.50
2023-04-30T12:38:49.030Z,1.67
2023-04-30T12:41:17.535Z,1.65
2023-04-30T12:43:44.498Z,2.13
2023-04-30T12:46:20.437Z,1.83
2023-04-30T12:48:47.281Z,1.83
2023-04-30T12:51:20.037Z,1.98
2023-04-30T12:53:47.480Z,2.03
2023-04-30T12:56:18.119Z,2.60
2023-04-30T12:58:51.198Z,1.80
2023-04-30T13:01:21.413Z,2.30
2023-04-30T13:03:48.605Z,2.17
2023-04-30T13:06:18.001Z,2.20
2023-04-30T13:08:57.327Z,2.15
2023-04-30T13:11:26.914Z,2.38
2023-04-30T13:13:55.829Z,2.35
2023-04-30T13:16:24.915Z,1.95
2023-04-30T13:18:52.150Z,2.40
2023-04-30T13:21:18.957Z,2.15
2023-04-30T13:23:52.721Z,1.63
2023-04-30T13:26:21.905Z,2.42
2023-04-30T13:28:48.699Z,2.20
2023-04-30T13:31:15.879Z,2.15
2023-04-30T13:33:42.804Z,2.45
2023-04-30T13:36:09.716Z,1.80
2023-04-30T13:38:36.523Z,1.98
2023-04-30T13:41:03.319Z,2.00
2023-04-30T13:43:30.194Z,1.73
2023-04-30T13:45:58.587Z,1.80
2023-04-30T13:48:25.661Z,1.70
2023-04-30T13:50:52.763Z,1.83
2023-04-30T13:53:19.534Z,1.77
2023-04-30T13:55:46.463Z,2.63
2023-04-30T13:58:13.884Z,1.63
2023-04-30T14:00:40.740Z,1.50
2023-04-30T14:03:08.548Z,1.50
2023-04-30T14:05:36.459Z,2.00
2023-04-30T14:08:08.461Z,1.50
2023-04-30T14:13:01.967Z,1.33
2023-04-30T14:15:30.767Z,2.05
2023-04-30T14:17:57.786Z,2.17
2023-04-30T14:20:25.278Z,1.98
2023-04-30T14:22:52.119Z,2.13
2023-04-30T14:25:19.045Z,2.35
2023-04-30T14:27:46.044Z,1.75
2023-04-30T14:30:13.258Z,1.65
2023-04-30T14:32:40.661Z,2.08
2023-04-30T14:35:08.182Z,2.08
2023-04-30T14:37:35.050Z,1.73
2023-04-30T14:40:02.217Z,1.65
2023-04-30T14:42:29.146Z,1.77
2023-04-30T14:44:56.043Z,3.63
2023-04-30T14:47:27.342Z,3.42
2023-04-30T14:49:54.452Z,1.85
2023-04-30T14:52:21.521Z,1.63
2023-04-30T14:54:48.344Z,3.80
2023-04-30T14:57:15.270Z,2.58
2023-04-30T14:59:42.063Z,1.30
2023-04-30T15:02:09.434Z,1.80
2023-04-30T15:04:36.413Z,1.95
2023-04-30T15:07:03.237Z,2.40
2023-04-30T15:09:30.316Z,1.67
2023-04-30T15:11:57.801Z,2.38
2023-04-30T15:14:24.641Z,1.70
2023-04-30T15:16:51.437Z,2.55
2023-04-30T15:19:20.796Z,1.80
2023-04-30T15:21:49.099Z,1.95
2023-04-30T15:24:16.163Z,2.00
2023-04-30T15:26:43.047Z,1.90
2023-04-30T15:29:10.556Z,1.88
2023-04-30T15:31:37.723Z,1.70
2023-04-30T15:34:04.610Z,1.75
2023-04-30T15:36:32.054Z,1.95
2023-04-30T15:38:59.055Z,1.80
2023-04-30T15:41:26.048Z,1.73
2023-04-30T15:43:52.840Z,1.52
2023-04-30T15:46:19.781Z,2.00
2023-04-30T15:48:46.775Z,2.80
2023-04-30T15:51:13.657Z,3.03
2023-04-30T15:53:43.091Z,3.55
2023-04-30T15:56:10.328Z,2.47
2023-04-30T15:58:37.176Z,4.45
2023-04-30T16:01:04.102Z,3.00
2023-04-30T16:03:31.645Z,2.22
2023-04-30T16:06:01.019Z,1.52
2023-04-30T16:08:28.094Z,1.58
2023-04-30T16:10:57.199Z,1.65
2023-04-30T16:13:24.051Z,1.77
2023-04-30T16:15:51.061Z,1.60
2023-04-30T16:18:17.938Z,1.80
2023-04-30T16:20:47.285Z,2.05
2023-04-30T16:23:16.866Z,1.60
2023-04-30T16:25:43.808Z,1.63
2023-04-30T16:28:10.697Z,1.80
2023-04-30T16:30:37.761Z,2.10
2023-04-30T16:33:04.618Z,1.73
2023-04-30T16:35:31.450Z,1.55
2023-04-30T16:37:58.304Z,1.70
2023-04-30T16:40:25.250Z,2.13
2023-04-30T16:42:52.220Z,1.60
2023-04-30T16:45:19.044Z,2.25
2023-04-30T16:47:46.014Z,1.70
2023-04-30T16:50:12.925Z,2.30
2023-04-30T16:52:39.754Z,2.35
2023-04-30T16:55:07.168Z,2.50
2023-04-30T16:57:33.964Z,2.78
2023-04-30T17:00:00.845Z,2.60
2023-04-30T17:02:27.820Z,1.80
2023-04-30T17:04:54.719Z,2.00
2023-04-30T17:07:21.564Z,1.60
2023-04-30T17:09:48.388Z,1.30
2023-04-30T17:12:15.249Z,1.63
2023-04-30T17:14:42.152Z,2.38
2023-04-30T17:17:08.996Z,1.40
2023-04-30T17:19:36.007Z,1.63
2023-04-30T17:22:03.127Z,1.80
2023-04-30T17:24:30.129Z,2.28
2023-04-30T17:26:58.239Z,2.40
2023-04-30T17:29:27.412Z,1.67
2023-04-30T17:31:56.059Z,1.73
2023-04-30T17:34:23.021Z,1.73
2023-04-30T17:36:50.301Z,1.95
2023-04-30T17:39:18.830Z,1.75
2023-04-30T17:41:48.905Z,2.35
2023-04-30T17:46:54.333Z,1.73
2023-04-30T17:49:21.371Z,1.70
2023-04-30T17:51:48.463Z,1.75
2023-04-30T17:54:16.495Z,1.73
2023-04-30T17:56:43.827Z,1.88
2023-04-30T17:59:13.759Z,1.83
2023-04-30T18:01:40.678Z,2.08
2023-04-30T18:04:08.174Z,2.03
2023-04-30T18:06:35.585Z,2.63
2023-04-30T18:09:03.912Z,2.15
2023-04-30T18:11:30.953Z,2.95
2023-04-30T18:13:57.810Z,1.80
2023-04-30T18:16:24.753Z,1.90
2023-04-30T18:18:51.699Z,1.52
2023-04-30T18:21:18.834Z,1.95
2023-04-30T18:23:45.685Z,2.10
2023-04-30T18:26:15.042Z,2.55
2023-04-30T18:28:42.517Z,2.17
2023-04-30T18:31:09.366Z,1.92
2023-04-30T18:33:36.394Z,2.10
2023-04-30T18:36:06.016Z,2.40
2023-04-30T18:38:36.014Z,1.88
2023-04-30T18:41:02.809Z,2.40
2023-04-30T18:43:29.688Z,2.30
2023-04-30T18:45:56.639Z,2.65
2023-04-30T18:48:23.433Z,2.22
2023-04-30T18:50:50.227Z,2.15
2023-04-30T18:53:17.675Z,2.30
2023-04-30T18:55:45.539Z,2.20
2023-04-30T18:58:12.497Z,2.33
2023-04-30T19:00:43.194Z,2.25
2023-04-30T19:03:10.454Z,2.70
2023-04-30T19:05:37.788Z,2.60
2023-04-30T19:08:04.808Z,2.63
2023-04-30T19:10:31.681Z,2.97
2023-04-30T19:12:58.472Z,3.30
2023-04-30T19:15:25.707Z,2.97
2023-04-30T19:17:55.027Z,3.20
2023-04-30T19:20:24.075Z,3.33
2023-04-30T19:22:51.035Z,3.38
2023-04-30T19:25:18.057Z,2.75
2023-04-30T19:27:45.013Z,2.58
2023-04-30T19:30:12.484Z,3.13
2023-04-30T19:32:39.398Z,2.85
2023-04-30T19:35:06.880Z,2.70
2023-04-30T19:37:36.797Z,3.28
2023-04-30T19:40:07.427Z,3.47
2023-04-30T19:42:34.198Z,2.78
2023-04-30T19:45:01.006Z,2.50
2023-04-30T19:47:28.027Z,3.22
2023-04-30T19:49:55.272Z,3.25
2023-04-30T19:52:22.179Z,2.95
2023-04-30T19:54:50.224Z,2.78
2023-04-30T19:57:21.523Z,3.13
2023-04-30T19:59:50.942Z,3.00
2023-04-30T20:02:18.430Z,2.72
2023-04-30T20:04:47.589Z,3.05
2023-04-30T20:07:17.813Z,2.80
2023-04-30T20:09:45.546Z,2.95
2023-04-30T20:12:12.672Z,3.25
2023-04-30T20:14:39.604Z,3.38
2023-04-30T20:17:13.312Z,3.70
2023-04-30T20:19:40.183Z,2.97
2023-04-30T20:22:13.197Z,2.90
2023-04-30T20:24:44.641Z,2.92
2023-04-30T20:27:14.663Z,1.92
2023-04-30T20:29:42.069Z,2.97
2023-04-30T20:32:13.417Z,3.35
2023-04-30T20:34:40.275Z,2.87
2023-04-30T20:37:07.486Z,3.15
2023-04-30T20:39:34.557Z,3.20
2023-04-30T20:42:02.193Z,3.63
2023-04-30T20:44:29.083Z,3.78
2023-04-30T20:46:56.167Z,3.97
2023-04-30T20:49:23.280Z,3.83
2023-04-30T20:51:50.245Z,3.22
2023-04-30T20:54:17.490Z,3.20
2023-04-30T20:56:46.847Z,3.35
2023-04-30T20:59:14.436Z,3.35
2023-04-30T21:01:41.588Z,3.33
2023-04-30T21:04:09.553Z,3.35
2023-04-30T21:06:37.112Z,3.70
2023-04-30T21:09:04.366Z,3.25
2023-04-30T21:11:31.327Z,2.92
2023-04-30T21:13:58.330Z,3.20
2023-04-30T21:16:27.414Z,2.80
2023-04-30T21:18:54.445Z,3.10
2023-04-30T21:21:30.767Z,3.17
2023-04-30T21:23:57.876Z,3.22
2023-04-30T21:26:24.794Z,3.28
2023-04-30T21:28:52.574Z,4.03
2023-04-30T21:31:19.673Z,3.38
2023-04-30T21:33:46.646Z,3.40
2023-04-30T21:36:13.622Z,3.60
2023-04-30T21:38:40.556Z,3.03
2023-04-30T21:41:13.874Z,3.30
2023-04-30T21:43:41.797Z,3.60
2023-04-30T21:46:09.849Z,3.75
2023-04-30T21:48:38.488Z,3.30
2023-04-30T21:51:17.220Z,3.38
2023-04-30T21:53:44.865Z,3.45
2023-04-30T21:56:12.272Z,3.38
2023-04-30T21:58:39.418Z,3.85
2023-04-30T22:01:08.821Z,3.85
2023-04-30T22:03:36.011Z,4.30
2023-04-30T22:06:05.482Z,3.92
2023-04-30T22:08:32.365Z,3.80
2023-04-30T22:11:00.391Z,3.92
2023-04-30T22:13:28.287Z,3.40
2023-04-30T22:15:55.719Z,3.22
2023-04-30T22:18:24.388Z,3.55
2023-04-30T22:20:52.129Z,3.67
2023-04-30T22:23:21.448Z,3.67
2023-04-30T22:25:48.542Z,3.42
2023-04-30T22:28:19.357Z,3.83
2023-04-30T22:30:46.290Z,4.30
2023-04-30T22:33:13.272Z,3.67
2023-04-30T22:35:40.198Z,3.78
2023-04-30T22:38:07.729Z,4.13
2023-04-30T22:40:37.565Z,4.13
2023-04-30T22:43:05.256Z,3.50
2023-04-30T22:45:32.554Z,3.97
2023-04-30T22:48:01.578Z,4.15
2023-04-30T22:50:28.808Z,3.58
2023-04-30T22:52:56.362Z,3.85
2023-04-30T22:55:23.299Z,3.60
2023-04-30T22:57:50.068Z,3.83
2023-04-30T23:00:18.853Z,3.53
2023-04-30T23:02:48.878Z,4.30
2023-04-30T23:05:15.830Z,3.80
2023-04-30T23:07:42.645Z,4.20
2023-04-30T23:10:09.955Z,4.50
2023-04-30T23:12:39.437Z,5.57
2023-04-30T23:15:06.600Z,4.53
2023-04-30T23:17:33.794Z,4.57
2023-04-30T23:20:00.647Z,6.15
2023-04-30T23:22:27.609Z,5.78
2023-04-30T23:24:57.200Z,5.03
2023-04-30T23:27:24.672Z,5.07
2023-04-30T23:29:51.699Z,5.38
2023-04-30T23:32:18.603Z,5.57
2023-04-30T23:34:45.462Z,5.47
2023-04-30T23:37:12.281Z,5.28
2023-04-30T23:39:39.303Z,4.95
2023-04-30T23:42:07.920Z,5.00
2023-04-30T23:44:34.729Z,5.57
2023-04-30T23:47:01.586Z,5.47
2023-04-30T23:49:28.454Z,5.43
2023-04-30T23:51:55.287Z,5.25
2023-04-30T23:54:22.422Z,5.45
2023-04-30T23:56:49.269Z,5.35
2023-04-30T23:59:16.731Z,5.97
